Time;durP1;ratioP1;P1;durP2;ratioP2;P2;SDS_P1;SDS_P2;PMS_P1;PMS_P2;Temp;Humidity;BMP_temperature;BMP_pressure;BME280_temperature;BME280_humidity;BME280_pressure;Samples;Min_cycle;Max_cycle;Signal;HPM_P1;HPM_P2
2020/12/10 00:11:42;;;;;;;20.58;7.57;;;4.00;99.90;;;;;;5480418;23;20081;-96
2020/12/10 00:14:08;;;;;;;20.92;7.28;;;3.90;99.90;;;;;;4892570;29;20112;-95
2020/12/10 00:16:33;;;;;;;23.50;7.50;;;3.90;99.90;;;;;;4894577;29;20053;-95
2020/12/10 00:19:02;;;;;;;20.55;7.70;;;3.90;99.90;;;;;;4898108;29;20040;-95
2020/12/10 00:21:31;;;;;;;20.08;8.20;;;4.00;99.90;;;;;;4892945;29;20025;-95
2020/12/10 00:23:58;;;;;;;24.75;7.95;;;4.00;99.90;;;;;;4893981;29;20037;-96
2020/12/10 00:26:23;;;;;;;28.67;8.63;;;4.00;99.90;;;;;;4902056;29;20029;-96
2020/12/10 00:28:49;;;;;;;29.38;8.27;;;3.90;99.90;;;;;;4903957;29;20021;-96
2020/12/10 00:31:15;;;;;;;17.15;6.90;;;4.00;99.90;;;;;;4901981;29;20036;-96
2020/12/10 00:47:54;;;;;;;19.17;7.82;;;4.00;99.90;;;;;;4973523;24;20067;-95
2020/12/10 00:50:23;;;;;;;19.13;9.07;;;4.00;99.90;;;;;;4935619;23;20048;-95
2020/12/10 00:52:48;;;;;;;18.42;7.60;;;4.00;99.90;;;;;;4944863;29;20020;-96
2020/12/10 00:55:14;;;;;;;21.20;7.68;;;4.00;99.90;;;;;;4939645;29;20047;-95
2020/12/10 00:57:42;;;;;;;17.75;7.03;;;4.00;99.90;;;;;;4936366;29;20028;-96
2020/12/10 01:00:09;;;;;;;19.60;9.30;;;4.00;99.90;;;;;;4936900;29;20021;-95
2020/12/10 01:02:35;;;;;;;15.15;7.28;;;4.00;99.90;;;;;;4950191;29;20068;-95
2020/12/10 01:05:01;;;;;;;19.65;7.57;;;4.00;99.90;;;;;;4932910;29;20122;-95
2020/12/10 01:07:27;;;;;;;24.38;7.93;;;4.00;99.90;;;;;;4933991;29;20494;-95
2020/12/10 01:09:57;;;;;;;18.98;7.10;;;4.10;99.90;;;;;;4950025;29;20028;-96
2020/12/10 01:12:23;;;;;;;19.98;6.13;;;4.10;99.90;;;;;;4938071;29;20031;-96
2020/12/10 01:14:51;;;;;;;9.52;5.57;;;4.10;99.90;;;;;;4935874;29;20036;-96
2020/12/10 01:17:17;;;;;;;18.10;6.22;;;4.10;99.90;;;;;;4918228;29;20024;-95
2020/12/10 01:19:45;;;;;;;15.07;6.43;;;4.10;99.90;;;;;;4949288;29;20046;-96
2020/12/10 01:22:11;;;;;;;16.40;5.65;;;4.10;99.90;;;;;;4925402;29;20029;-96
2020/12/10 01:24:36;;;;;;;16.45;5.82;;;4.10;99.90;;;;;;4922726;29;20036;-96
2020/12/10 01:27:07;;;;;;;12.52;5.93;;;4.10;99.90;;;;;;4925226;29;20036;-96
2020/12/10 01:29:37;;;;;;;17.27;5.30;;;4.10;99.90;;;;;;4928379;29;20092;-96
2020/12/10 01:34:44;;;;;;;20.98;5.25;;;4.10;99.90;;;;;;4953588;29;20046;-95
2020/12/10 01:37:10;;;;;;;18.02;5.38;;;4.10;99.90;;;;;;4940377;29;20047;-95
2020/12/10 01:39:38;;;;;;;20.83;5.82;;;4.10;99.90;;;;;;4932312;29;20103;-96
2020/12/10 01:42:06;;;;;;;12.10;4.75;;;4.10;99.90;;;;;;4946328;29;20103;-95
2020/12/10 01:44:33;;;;;;;14.38;6.10;;;4.10;99.90;;;;;;4925634;29;20066;-96
2020/12/10 01:46:59;;;;;;;19.90;5.25;;;4.20;99.90;;;;;;4927250;29;20028;-95
2020/12/10 01:49:25;;;;;;;20.48;6.35;;;4.10;99.90;;;;;;4925837;29;20382;-95
2020/12/10 01:51:51;;;;;;;14.55;5.38;;;4.10;99.90;;;;;;4926681;29;20034;-95
2020/12/10 01:54:19;;;;;;;15.93;5.57;;;4.20;99.90;;;;;;4926944;29;20027;-96
2020/12/10 01:56:45;;;;;;;22.77;5.97;;;4.20;99.90;;;;;;4926096;29;20038;-95
2020/12/10 01:59:13;;;;;;;24.38;6.22;;;4.20;99.90;;;;;;4924614;29;20035;-95
2020/12/10 02:01:39;;;;;;;14.95;6.20;;;4.20;99.90;;;;;;4931580;29;20028;-95
2020/12/10 02:04:30;;;;;;;29.42;6.70;;;4.20;99.90;;;;;;4921664;29;20121;-94
2020/12/10 02:06:57;;;;;;;20.73;6.45;;;4.20;99.90;;;;;;4935491;29;20048;-94
2020/12/10 02:09:23;;;;;;;24.95;7.25;;;4.10;99.90;;;;;;4921305;29;20075;-95
2020/12/10 02:11:50;;;;;;;19.40;7.28;;;4.10;99.90;;;;;;4921639;29;20055;-96
2020/12/10 02:14:15;;;;;;;20.30;6.93;;;4.10;99.90;;;;;;4922373;29;20023;-93
2020/12/10 02:16:41;;;;;;;24.95;6.55;;;4.10;99.90;;;;;;4922906;29;20062;-95
2020/12/10 02:19:07;;;;;;;21.90;7.35;;;4.10;99.90;;;;;;4924017;29;20367;-95
2020/12/10 02:21:33;;;;;;;17.35;7.32;;;4.20;99.90;;;;;;4921648;29;20038;-95
2020/12/10 02:24:00;;;;;;;22.80;8.60;;;4.10;99.90;;;;;;4924714;29;20035;-95
2020/12/10 02:26:27;;;;;;;21.60;7.93;;;4.10;99.90;;;;;;4925395;29;20055;-95
2020/12/10 02:28:59;;;;;;;31.48;7.65;;;4.10;99.90;;;;;;4923423;29;20477;-95
2020/12/10 02:31:28;;;;;;;21.35;8.50;;;4.10;99.90;;;;;;4924789;29;20087;-95
2020/12/10 02:33:59;;;;;;;23.23;7.07;;;4.10;99.90;;;;;;4923350;29;20047;-95
2020/12/10 02:36:27;;;;;;;24.35;8.70;;;4.10;99.90;;;;;;4924482;29;20779;-94
2020/12/10 02:38:53;;;;;;;23.10;7.35;;;4.00;99.90;;;;;;4925907;29;20083;-94
2020/12/10 02:41:20;;;;;;;19.85;8.70;;;4.10;99.90;;;;;;4924185;29;20028;-95
2020/12/10 02:43:46;;;;;;;24.20;7.93;;;4.00;99.90;;;;;;4924789;29;20024;-95
2020/12/10 02:46:13;;;;;;;22.70;8.88;;;4.10;99.90;;;;;;4925348;29;20537;-95
2020/12/10 02:51:50;;;;;;;26.30;8.43;;;4.00;99.90;;;;;;5408669;23;20051;-96
2020/12/10 02:54:17;;;;;;;22.05;7.22;;;4.00;99.90;;;;;;4962677;29;20027;-96
2020/12/10 02:56:43;;;;;;;21.55;7.85;;;4.00;99.90;;;;;;4963117;28;20012;-95
2020/12/10 02:59:41;;;;;;;19.13;7.28;;;4.10;99.90;;;;;;5602729;23;20429;31
2020/12/10 03:02:06;;;;;;;20.88;6.63;;;4.10;99.90;;;;;;4904955;29;20040;-94
2020/12/10 03:04:32;;;;;;;17.30;6.30;;;4.10;99.90;;;;;;4902622;29;20040;-95
2020/12/10 03:06:58;;;;;;;16.48;8.05;;;4.10;99.90;;;;;;4918227;29;20043;-95
2020/12/10 03:09:24;;;;;;;23.25;7.20;;;4.10;99.90;;;;;;4906452;29;20035;-94
2020/12/10 03:11:51;;;;;;;17.52;6.80;;;4.10;99.90;;;;;;4916605;29;20028;-94
2020/12/10 03:14:16;;;;;;;20.70;7.05;;;4.10;99.90;;;;;;4916403;29;20032;-95
2020/12/10 03:16:42;;;;;;;26.08;7.45;;;4.10;99.90;;;;;;4912682;29;20119;-94
2020/12/10 03:19:08;;;;;;;25.38;7.30;;;4.10;99.90;;;;;;4913304;29;20028;-94
2020/12/10 03:21:34;;;;;;;18.00;6.45;;;4.10;99.90;;;;;;4932617;29;20031;-95
2020/12/10 03:24:00;;;;;;;18.08;7.22;;;4.10;99.90;;;;;;4909044;29;20040;-94
2020/12/10 03:26:26;;;;;;;16.92;6.40;;;4.20;99.90;;;;;;4916228;29;20036;-95
2020/12/10 03:28:52;;;;;;;18.92;7.00;;;4.10;99.90;;;;;;4936177;29;20016;-95
2020/12/10 03:31:18;;;;;;;16.85;5.78;;;4.20;99.90;;;;;;4907060;29;20055;-95
2020/12/10 03:36:52;;;;;;;18.55;6.10;;;4.20;99.90;;;;;;5213054;23;20051;-95
2020/12/10 03:39:19;;;;;;;20.20;7.03;;;4.10;99.90;;;;;;4916240;29;20023;-96
2020/12/10 03:41:50;;;;;;;15.45;6.70;;;4.20;99.90;;;;;;4954137;23;20051;-96
2020/12/10 03:44:17;;;;;;;20.05;6.28;;;4.20;99.90;;;;;;4923014;29;20090;-95
2020/12/10 03:46:43;;;;;;;18.42;6.18;;;4.20;99.90;;;;;;4922230;29;20457;-96
2020/12/10 03:49:10;;;;;;;23.80;6.25;;;4.20;99.90;;;;;;4918543;29;20054;-94
2020/12/10 03:51:36;;;;;;;20.30;6.45;;;4.20;99.90;;;;;;4918123;29;20029;-95
2020/12/10 03:54:02;;;;;;;20.92;6.55;;;4.20;99.90;;;;;;4918241;29;20043;-94
2020/12/10 03:56:31;;;;;;;21.70;6.45;;;4.20;99.90;;;;;;4917856;29;20386;-96
2020/12/10 03:58:59;;;;;;;25.90;7.72;;;4.20;99.90;;;;;;4919434;29;20034;-96
2020/12/10 04:01:25;;;;;;;19.52;8.20;;;4.20;99.90;;;;;;4919767;29;20031;-95
2020/12/10 04:03:51;;;;;;;15.15;6.80;;;4.20;99.90;;;;;;4919205;29;20024;-95
2020/12/10 04:06:19;;;;;;;25.17;6.65;;;4.20;99.90;;;;;;4918857;29;20040;-95
2020/12/10 04:08:45;;;;;;;21.52;8.10;;;4.20;99.90;;;;;;4917834;29;20060;-95
2020/12/10 04:11:11;;;;;;;15.77;6.80;;;4.20;99.90;;;;;;4916123;29;20482;-96
2020/12/10 04:13:37;;;;;;;22.85;7.30;;;4.20;99.90;;;;;;4916977;29;20028;-96
2020/12/10 04:16:03;;;;;;;25.05;6.30;;;4.20;99.90;;;;;;4917571;29;20130;-95
2020/12/10 04:18:29;;;;;;;22.00;6.13;;;4.20;99.90;;;;;;4914792;29;20108;-95
2020/12/10 04:20:56;;;;;;;19.77;6.38;;;4.20;99.90;;;;;;4917894;29;20028;-95
2020/12/10 04:23:21;;;;;;;18.85;6.32;;;4.20;99.90;;;;;;4922397;29;20028;-94
2020/12/10 04:25:52;;;;;;;16.42;6.38;;;4.20;99.90;;;;;;4923488;29;20044;-96
2020/12/10 04:28:18;;;;;;;18.05;6.28;;;4.20;99.90;;;;;;4919836;29;20039;-96
2020/12/10 04:30:43;;;;;;;21.40;5.25;;;4.20;99.90;;;;;;4919131;29;20040;-95
2020/12/10 04:33:09;;;;;;;16.08;5.85;;;4.30;99.90;;;;;;4921957;29;20032;-95
2020/12/10 04:35:35;;;;;;;21.45;5.35;;;4.30;99.90;;;;;;4939138;29;20036;-96
2020/12/10 04:38:00;;;;;;;21.90;5.90;;;4.30;99.90;;;;;;4937810;29;20020;-94
2020/12/10 04:40:27;;;;;;;30.45;5.80;;;4.30;99.90;;;;;;4938604;29;20028;-96
2020/12/10 04:42:54;;;;;;;12.77;4.57;;;4.30;99.90;;;;;;4938383;29;20107;-95
2020/12/10 04:45:20;;;;;;;16.35;4.70;;;4.30;99.90;;;;;;4926247;29;20060;-96
2020/12/10 04:47:46;;;;;;;19.33;6.30;;;4.30;99.90;;;;;;4920713;29;20020;-96
2020/12/10 04:50:19;;;;;;;13.07;4.70;;;4.30;99.90;;;;;;4919901;29;20028;-95
2020/12/10 04:52:45;;;;;;;16.05;4.40;;;4.40;99.90;;;;;;4926254;29;20020;-96
2020/12/10 04:55:11;;;;;;;19.58;4.20;;;4.40;99.90;;;;;;4923931;29;20032;-95
2020/12/10 04:57:39;;;;;;;20.98;4.93;;;4.40;99.90;;;;;;4925837;29;20064;-96
2020/12/10 05:00:06;;;;;;;17.02;4.70;;;4.40;99.90;;;;;;4924041;29;20032;-96
2020/12/10 05:02:32;;;;;;;17.98;5.43;;;4.40;99.90;;;;;;4922780;29;20020;-96
2020/12/10 05:04:58;;;;;;;11.95;4.43;;;4.40;99.90;;;;;;4920321;29;20149;-96
2020/12/10 05:07:39;;;;;;;21.83;5.32;;;4.40;99.90;;;;;;4922397;29;20031;-95
2020/12/10 05:10:05;;;;;;;24.02;6.35;;;4.40;99.90;;;;;;4926097;29;20029;-96
2020/12/10 05:12:31;;;;;;;22.92;5.40;;;4.40;99.90;;;;;;4923403;29;20028;-95
2020/12/10 05:14:57;;;;;;;18.17;5.10;;;4.40;99.90;;;;;;4922599;29;20040;-96
2020/12/10 05:17:22;;;;;;;12.32;5.00;;;4.50;99.90;;;;;;4929637;29;20115;-95
2020/12/10 05:19:58;;;;;;;23.00;5.35;;;4.40;99.90;;;;;;4919215;29;20040;-95
2020/12/10 05:22:24;;;;;;;22.83;5.75;;;4.50;99.90;;;;;;4917425;29;20024;-95
2020/12/10 05:25:07;;;;;;;19.27;6.72;;;4.50;99.90;;;;;;4918954;29;20091;-95
2020/12/10 05:27:33;;;;;;;17.63;5.40;;;4.40;99.90;;;;;;4923224;29;20073;-95
2020/12/10 05:29:59;;;;;;;21.85;6.38;;;4.40;99.90;;;;;;4917826;29;20036;-95
2020/12/10 05:32:36;;;;;;;15.88;6.13;;;4.40;99.90;;;;;;4918004;29;20035;-95
2020/12/10 05:35:25;;;;;;;26.92;6.22;;;4.50;99.90;;;;;;4917752;29;20047;-95
2020/12/10 05:37:52;;;;;;;24.90;6.10;;;4.50;99.90;;;;;;4910473;29;20052;-96
2020/12/10 05:40:19;;;;;;;14.90;5.88;;;4.50;99.90;;;;;;4917412;29;20020;-96
2020/12/10 05:42:50;;;;;;;26.23;5.55;;;4.40;99.90;;;;;;4917264;29;20036;-95
2020/12/10 05:45:21;;;;;;;21.13;7.38;;;4.50;99.90;;;;;;4917137;29;20036;-95
2020/12/10 05:47:55;;;;;;;21.52;6.28;;;4.50;99.90;;;;;;4918172;29;20431;-96
2020/12/10 05:50:26;;;;;;;14.80;5.53;;;4.50;99.90;;;;;;4914454;29;20119;-96
2020/12/10 05:53:07;;;;;;;18.70;5.45;;;4.50;99.90;;;;;;4921336;29;20560;-94
2020/12/10 05:55:40;;;;;;;17.33;6.15;;;4.50;99.90;;;;;;4930781;29;20076;-96
2020/12/10 05:58:08;;;;;;;19.80;5.97;;;4.50;99.90;;;;;;4928949;29;20024;-95
2020/12/10 06:00:35;;;;;;;17.48;5.78;;;4.50;99.90;;;;;;4908002;29;20051;-96
2020/12/10 06:03:01;;;;;;;20.45;5.82;;;4.50;99.90;;;;;;4923074;29;20023;-96
2020/12/10 06:05:30;;;;;;;17.13;5.25;;;4.50;99.90;;;;;;4924417;29;20423;-96
2020/12/10 06:08:08;;;;;;;21.13;6.20;;;4.50;99.90;;;;;;4923494;29;20020;-96
2020/12/10 06:10:43;;;;;;;23.75;8.13;;;4.40;99.90;;;;;;4922691;29;20063;-96
2020/12/10 06:13:10;;;;;;;31.70;6.85;;;4.50;99.90;;;;;;4921939;29;20111;-96
2020/12/10 06:15:42;;;;;;;25.10;6.25;;;4.40;99.90;;;;;;4928869;29;20020;-96
2020/12/10 06:18:15;;;;;;;16.15;6.35;;;4.50;99.90;;;;;;4929240;29;20039;-96
2020/12/10 06:20:46;;;;;;;22.90;7.85;;;4.50;99.90;;;;;;4923199;29;20016;-94
2020/12/10 06:23:29;;;;;;;19.75;7.68;;;4.40;99.90;;;;;;4924148;29;20028;-96
2020/12/10 06:25:59;;;;;;;22.13;8.50;;;4.40;99.90;;;;;;4921754;29;20039;-96
2020/12/10 06:28:27;;;;;;;28.83;8.77;;;4.40;99.90;;;;;;4924532;29;20036;-96
2020/12/10 06:31:10;;;;;;;25.48;9.02;;;4.40;99.90;;;;;;4921884;29;20486;-96
2020/12/10 06:33:46;;;;;;;21.85;9.40;;;4.40;99.90;;;;;;4920524;29;20070;-96
2020/12/10 06:36:23;;;;;;;29.85;10.05;;;4.40;99.90;;;;;;4914692;29;20028;-95
2020/12/10 06:38:50;;;;;;;27.88;10.45;;;4.40;99.90;;;;;;4915649;29;20052;-95
2020/12/10 06:41:16;;;;;;;31.70;9.95;;;4.40;99.90;;;;;;4917150;29;20047;-96
2020/12/10 06:43:42;;;;;;;20.38;9.40;;;4.40;99.90;;;;;;4916846;29;20031;-96
2020/12/10 06:46:08;;;;;;;29.27;11.85;;;4.40;99.90;;;;;;4900513;29;20044;-95
2020/12/10 06:48:40;;;;;;;38.95;12.95;;;4.40;99.90;;;;;;4918223;29;20028;-96
2020/12/10 06:51:15;;;;;;;32.83;10.88;;;4.50;99.90;;;;;;4919031;29;20024;-96
2020/12/10 06:53:59;;;;;;;23.67;10.40;;;4.50;99.90;;;;;;4907767;29;20051;-95
2020/12/10 06:56:29;;;;;;;22.83;10.55;;;4.50;99.90;;;;;;4932073;29;20116;-96
2020/12/10 06:59:02;;;;;;;25.13;11.23;;;4.50;99.90;;;;;;4918356;29;20032;-96
2020/12/10 07:01:37;;;;;;;33.75;12.55;;;4.50;99.90;;;;;;4918825;29;20114;-95
2020/12/10 07:06:42;;;;;;;28.17;11.23;;;4.50;99.90;;;;;;4918868;29;20024;-96
2020/12/10 07:09:16;;;;;;;35.45;13.20;;;4.50;99.90;;;;;;4919593;29;20043;-96
2020/12/10 07:11:44;;;;;;;29.45;11.30;;;4.50;99.90;;;;;;4918144;29;20020;-95
2020/12/10 07:14:32;;;;;;;29.85;10.77;;;4.50;99.90;;;;;;4915457;29;20024;-94
2020/12/10 07:17:00;;;;;;;27.70;11.07;;;4.50;99.90;;;;;;4914411;29;20032;-96
2020/12/10 07:19:26;;;;;;;28.02;10.48;;;4.60;99.90;;;;;;4916605;29;20032;-96
2020/12/10 07:21:52;;;;;;;26.63;12.32;;;4.60;99.90;;;;;;4916600;29;20028;-95
2020/12/10 07:24:17;;;;;;;30.45;11.73;;;4.60;99.90;;;;;;4920325;29;20597;-94
2020/12/10 07:26:43;;;;;;;24.88;10.38;;;4.60;99.90;;;;;;4926112;29;20065;-95
2020/12/10 07:29:09;;;;;;;30.33;11.27;;;4.60;99.90;;;;;;4915523;29;20051;-94
2020/12/10 07:31:35;;;;;;;33.08;10.95;;;4.60;99.90;;;;;;4915740;29;20125;-95
2020/12/10 07:34:01;;;;;;;24.30;11.02;;;4.60;99.90;;;;;;4914865;29;20033;-94
2020/12/10 07:36:30;;;;;;;23.13;10.85;;;4.60;99.90;;;;;;4916945;29;20393;-94
2020/12/10 07:38:56;;;;;;;31.23;12.13;;;4.60;99.90;;;;;;4916497;29;20056;-94
2020/12/10 07:41:21;;;;;;;26.60;10.40;;;4.60;99.90;;;;;;4915095;29;20068;-95
2020/12/10 07:43:53;;;;;;;26.60;9.95;;;4.60;99.90;;;;;;4920947;29;20035;-95
2020/12/10 07:46:20;;;;;;;27.88;10.10;;;4.60;99.90;;;;;;4917121;29;20039;-93
2020/12/10 07:48:49;;;;;;;26.88;10.00;;;4.60;99.90;;;;;;4915176;29;20048;-93
2020/12/10 07:51:22;;;;;;;23.98;9.18;;;4.60;99.90;;;;;;4921899;29;20040;-95
2020/12/10 07:53:50;;;;;;;26.05;10.93;;;4.60;99.90;;;;;;4932137;29;20025;-93
2020/12/10 07:56:22;;;;;;;39.10;11.32;;;4.70;99.90;;;;;;4921825;29;20040;-95
2020/12/10 07:59:07;;;;;;;34.75;11.07;;;4.70;99.90;;;;;;4916588;29;20028;-94
2020/12/10 08:02:00;;;;;;;28.92;10.35;;;4.70;99.90;;;;;;4917594;29;20036;-94
2020/12/10 08:04:27;;;;;;;25.08;9.18;;;4.70;99.90;;;;;;4913243;29;20095;-95
2020/12/10 08:06:52;;;;;;;24.77;8.60;;;4.70;99.90;;;;;;4918435;29;20031;-94
2020/12/10 08:09:19;;;;;;;24.88;9.30;;;4.70;99.90;;;;;;4918038;29;20565;-94
2020/12/10 08:11:55;;;;;;;21.02;9.20;;;4.70;99.90;;;;;;4921378;29;20031;-94
2020/12/10 08:14:29;;;;;;;36.70;10.48;;;4.70;99.90;;;;;;4926447;29;20028;-92
2020/12/10 08:16:55;;;;;;;23.25;9.10;;;4.70;99.90;;;;;;4929714;29;20020;-94
2020/12/10 08:19:31;;;;;;;23.77;9.23;;;4.70;99.90;;;;;;4929621;29;20034;-93
2020/12/10 08:21:58;;;;;;;29.27;9.15;;;4.70;99.90;;;;;;4917549;29;20047;-93
2020/12/10 08:24:37;;;;;;;28.67;9.07;;;4.70;99.90;;;;;;4923173;29;20030;-95
2020/12/10 08:27:05;;;;;;;25.60;9.20;;;4.70;99.90;;;;;;4925088;29;20394;-95
2020/12/10 08:29:31;;;;;;;28.77;8.38;;;4.70;99.90;;;;;;4927757;29;20024;-96
2020/12/10 08:32:11;;;;;;;25.55;10.07;;;4.80;99.90;;;;;;4921360;29;20028;-95
2020/12/10 08:34:38;;;;;;;21.95;7.78;;;4.80;99.90;;;;;;4918909;29;20028;-94
2020/12/10 08:37:08;;;;;;;24.73;8.57;;;4.80;99.90;;;;;;4920493;29;20043;-94
2020/12/10 08:39:36;;;;;;;26.58;9.65;;;4.80;99.90;;;;;;4922207;29;20048;-95
2020/12/10 08:42:02;;;;;;;35.03;9.55;;;4.80;99.90;;;;;;4921678;29;20131;-96
2020/12/10 08:44:48;;;;;;;36.22;11.10;;;4.80;99.90;;;;;;4920996;29;20032;-94
2020/12/10 08:47:23;;;;;;;26.08;8.77;;;4.80;99.90;;;;;;4919228;29;20031;-95
2020/12/10 08:50:29;;;;;;;27.52;9.13;;;4.80;99.90;;;;;;4896929;29;20027;-96
2020/12/10 08:53:00;;;;;;;31.60;8.63;;;4.80;99.90;;;;;;4905242;29;20064;-94
2020/12/10 08:55:26;;;;;;;28.02;9.32;;;4.80;99.90;;;;;;4926857;29;20750;-94
2020/12/10 08:57:52;;;;;;;24.27;9.45;;;4.90;99.90;;;;;;4918502;29;20043;-95
2020/12/10 09:00:18;;;;;;;28.75;9.63;;;4.80;99.90;;;;;;4917679;29;20028;-93
2020/12/10 09:02:43;;;;;;;30.65;10.43;;;4.80;99.90;;;;;;4922122;29;20043;-95
2020/12/10 09:05:09;;;;;;;26.17;10.07;;;4.90;99.90;;;;;;4924942;29;20079;-94
2020/12/10 09:07:37;;;;;;;36.13;11.13;;;4.90;99.90;;;;;;4915181;29;20045;-94
2020/12/10 09:10:06;;;;;;;26.08;11.75;;;4.90;99.90;;;;;;4916276;29;20032;-93
2020/12/10 09:12:31;;;;;;;41.15;12.77;;;4.90;99.90;;;;;;4917516;29;20386;-94
2020/12/10 09:14:57;;;;;;;35.17;13.30;;;4.90;99.90;;;;;;4916756;29;20087;-94
2020/12/10 09:17:29;;;;;;;35.35;12.15;;;4.90;99.90;;;;;;4916757;29;20039;-95
2020/12/10 09:19:55;;;;;;;31.17;12.63;;;4.90;99.90;;;;;;4917167;29;21226;-95
2020/12/10 09:22:22;;;;;;;33.65;12.65;;;4.90;99.90;;;;;;4916712;29;20052;-93
2020/12/10 09:24:47;;;;;;;32.03;13.35;;;5.00;99.90;;;;;;4917492;29;20119;-91
2020/12/10 09:27:20;;;;;;;29.40;12.23;;;4.90;99.90;;;;;;4917057;29;20024;-93
2020/12/10 09:29:46;;;;;;;41.60;14.77;;;4.90;99.90;;;;;;4916135;29;20116;-93
2020/12/10 09:32:11;;;;;;;30.67;13.20;;;4.90;99.90;;;;;;4916043;29;20104;-93
2020/12/10 09:34:37;;;;;;;36.58;13.90;;;5.00;99.90;;;;;;4916850;29;20063;-95
2020/12/10 09:37:03;;;;;;;29.92;12.85;;;4.90;99.90;;;;;;4916848;29;20028;-93
2020/12/10 09:39:29;;;;;;;33.92;12.73;;;4.90;99.90;;;;;;4916851;29;20039;-94
2020/12/10 09:41:55;;;;;;;30.77;12.23;;;4.90;99.90;;;;;;4916387;29;20076;-95
2020/12/10 09:44:21;;;;;;;37.67;13.02;;;4.90;99.90;;;;;;4921386;29;20028;-94
2020/12/10 09:46:46;;;;;;;25.00;11.93;;;4.90;99.90;;;;;;4924561;29;20032;-94
2020/12/10 09:49:12;;;;;;;34.22;12.13;;;4.90;99.90;;;;;;4923228;29;20027;-94
2020/12/10 09:51:45;;;;;;;32.67;11.40;;;4.90;99.90;;;;;;4922189;29;20110;-96
2020/12/10 09:54:28;;;;;;;36.15;12.07;;;5.00;99.90;;;;;;4922175;29;20024;-94
2020/12/10 09:59:38;;;;;;;31.70;11.30;;;5.00;99.90;;;;;;4916744;29;20031;-94
2020/12/10 10:02:04;;;;;;;33.28;11.15;;;5.00;99.90;;;;;;4916176;29;20024;-94
2020/12/10 10:04:30;;;;;;;28.77;10.57;;;5.10;99.90;;;;;;4916516;29;20039;-92
2020/12/10 10:06:56;;;;;;;24.15;10.98;;;5.10;99.90;;;;;;4916688;29;20028;-93
2020/12/10 10:09:24;;;;;;;27.30;11.30;;;5.20;99.90;;;;;;4916773;29;20103;-92
2020/12/10 10:11:56;;;;;;;27.92;10.30;;;5.20;99.90;;;;;;4916061;29;20036;-93
2020/12/10 10:14:22;;;;;;;31.50;10.23;;;5.30;99.90;;;;;;4915923;29;20064;-92
2020/12/10 10:16:48;;;;;;;28.17;10.40;;;5.30;99.90;;;;;;4916723;29;20071;-95
2020/12/10 10:19:13;;;;;;;20.20;9.75;;;5.40;99.90;;;;;;4915069;29;20024;-94
2020/12/10 10:21:39;;;;;;;24.40;9.70;;;5.50;99.90;;;;;;4916336;29;20463;-93
2020/12/10 10:24:05;;;;;;;23.35;8.60;;;5.50;99.90;;;;;;4919106;29;20028;-95
2020/12/10 10:26:30;;;;;;;26.92;10.10;;;5.50;99.90;;;;;;4926989;29;20493;-94
2020/12/10 10:28:57;;;;;;;21.95;9.48;;;5.60;99.90;;;;;;4915167;29;20043;-94
2020/12/10 10:31:22;;;;;;;25.25;8.23;;;5.60;99.90;;;;;;4914227;29;20036;-94
2020/12/10 10:33:48;;;;;;;16.95;8.32;;;5.60;99.90;;;;;;4915790;29;20026;-93
2020/12/10 10:36:14;;;;;;;28.08;8.88;;;5.60;99.90;;;;;;4917576;29;20024;-94
2020/12/10 10:38:40;;;;;;;24.52;7.75;;;5.60;99.90;;;;;;4916458;29;20047;-93
2020/12/10 10:41:06;;;;;;;26.33;7.93;;;5.60;99.90;;;;;;4915671;29;20055;-95
2020/12/10 10:43:35;;;;;;;14.02;7.93;;;5.60;99.90;;;;;;4915621;29;20112;-94
2020/12/10 10:46:01;;;;;;;17.90;9.20;;;5.60;99.90;;;;;;4916080;29;20040;-93
2020/12/10 10:48:26;;;;;;;24.50;9.77;;;5.60;99.90;;;;;;4915102;29;20016;-94
2020/12/10 10:50:52;;;;;;;26.73;10.07;;;5.60;99.90;;;;;;4916746;29;20079;-94
2020/12/10 10:53:17;;;;;;;22.25;9.13;;;5.60;99.90;;;;;;4914381;29;20033;-94
2020/12/10 10:55:43;;;;;;;25.38;10.20;;;5.60;99.90;;;;;;4914940;29;20079;-93
2020/12/10 10:58:10;;;;;;;19.55;9.60;;;5.60;99.90;;;;;;4914680;29;20044;-94
2020/12/10 11:00:35;;;;;;;14.65;8.25;;;5.70;99.90;;;;;;4914847;29;20055;-93
2020/12/10 11:03:01;;;;;;;24.02;9.85;;;5.60;99.90;;;;;;4914717;29;20478;-95
2020/12/10 11:05:27;;;;;;;23.70;10.57;;;5.60;99.90;;;;;;4914789;29;20498;-95
2020/12/10 11:07:52;;;;;;;22.15;9.02;;;5.70;99.90;;;;;;4914867;29;20032;-95
2020/12/10 11:10:21;;;;;;;24.98;8.50;;;5.70;99.90;;;;;;4914499;29;20024;-93
2020/12/10 11:12:47;;;;;;;19.23;7.97;;;5.70;99.90;;;;;;4916522;29;20043;-94
2020/12/10 11:15:13;;;;;;;19.90;8.02;;;5.70;99.90;;;;;;4914769;29;20032;-95
2020/12/10 11:17:39;;;;;;;12.07;7.57;;;5.80;99.90;;;;;;4914721;29;20047;-96
2020/12/10 11:20:06;;;;;;;20.25;7.80;;;5.80;99.90;;;;;;4914745;29;20065;-95
2020/12/10 11:22:33;;;;;;;18.60;7.40;;;5.80;99.90;;;;;;4915214;29;20052;-93
2020/12/10 11:24:59;;;;;;;22.60;7.10;;;5.80;99.90;;;;;;4914136;29;20386;-94
2020/12/10 11:27:25;;;;;;;22.42;5.95;;;5.90;99.90;;;;;;4914805;29;20035;-95
2020/12/10 11:29:50;;;;;;;18.58;6.47;;;5.90;99.90;;;;;;4914699;29;20545;-94
2020/12/10 11:32:16;;;;;;;25.77;9.95;;;6.00;99.90;;;;;;4916688;29;20035;-93
2020/12/10 11:34:42;;;;;;;21.63;8.90;;;6.00;99.90;;;;;;4915714;29;20318;-96
2020/12/10 11:37:08;;;;;;;17.27;7.18;;;6.00;99.90;;;;;;4916407;29;20478;-93
2020/12/10 11:39:33;;;;;;;16.73;7.00;;;6.10;99.90;;;;;;4899916;29;20385;-94
2020/12/10 11:41:59;;;;;;;25.52;11.07;;;6.10;99.90;;;;;;4916003;29;20131;-93
2020/12/10 11:44:25;;;;;;;45.40;23.65;;;6.10;99.90;;;;;;4916888;29;20028;-95
2020/12/10 11:46:51;;;;;;;33.33;21.45;;;6.10;99.90;;;;;;4931245;29;20087;-95
2020/12/10 11:49:16;;;;;;;26.02;11.68;;;6.20;99.90;;;;;;4934785;29;20021;-94
2020/12/10 11:51:43;;;;;;;15.38;8.02;;;6.20;99.90;;;;;;4934263;29;20028;-94
2020/12/10 11:55:06;;;;;;;35.22;19.00;;;6.20;99.90;;;;;;4932591;29;20032;-94
2020/12/10 11:57:32;;;;;;;17.52;7.85;;;6.20;99.90;;;;;;4874736;29;20029;-95
2020/12/10 12:00:09;;;;;;;13.50;7.50;;;6.10;99.90;;;;;;4880240;29;20660;-93
2020/12/10 12:02:35;;;;;;;29.55;11.18;;;6.20;99.90;;;;;;4874033;29;20744;-93
2020/12/10 12:05:01;;;;;;;27.15;15.13;;;6.20;99.90;;;;;;4866188;29;20069;-94
2020/12/10 12:07:30;;;;;;;21.98;8.82;;;6.20;99.90;;;;;;4873410;29;20093;-95
2020/12/10 12:09:55;;;;;;;12.95;6.45;;;6.20;99.90;;;;;;4872976;29;20036;-95
2020/12/10 12:12:21;;;;;;;28.45;13.85;;;6.20;99.90;;;;;;4880450;29;20041;-94
2020/12/10 12:14:47;;;;;;;27.25;9.38;;;6.20;99.90;;;;;;4873385;29;20029;-94
2020/12/10 12:17:12;;;;;;;16.17;7.07;;;6.30;99.90;;;;;;4879368;29;20033;-95
2020/12/10 12:19:38;;;;;;;32.67;20.08;;;6.30;99.90;;;;;;4871314;29;20124;-93
2020/12/10 12:22:04;;;;;;;15.77;6.13;;;6.20;99.90;;;;;;4872389;29;20021;-95
2020/12/10 12:24:30;;;;;;;16.40;7.57;;;6.30;99.90;;;;;;4882375;29;20537;-94
2020/12/10 12:26:55;;;;;;;23.25;12.68;;;6.30;99.90;;;;;;4874646;29;20041;-94
2020/12/10 12:29:27;;;;;;;29.23;13.65;;;6.20;99.90;;;;;;4871657;29;20479;-96
2020/12/10 12:31:52;;;;;;;27.35;15.15;;;6.20;99.90;;;;;;4899568;29;20032;-94
2020/12/10 12:34:18;;;;;;;30.70;16.10;;;6.20;99.90;;;;;;4916784;29;20024;-93
2020/12/10 12:36:44;;;;;;;27.63;11.27;;;6.20;99.90;;;;;;4916631;29;20533;-94
2020/12/10 12:39:13;;;;;;;19.65;8.13;;;6.20;99.90;;;;;;4917450;29;20016;-94
2020/12/10 12:41:39;;;;;;;15.25;7.45;;;6.20;99.90;;;;;;4916944;29;20052;-95
2020/12/10 12:44:05;;;;;;;14.85;6.20;;;6.20;99.90;;;;;;4917098;29;20060;-94
2020/12/10 12:46:31;;;;;;;11.27;6.55;;;6.20;99.90;;;;;;4917297;29;20168;-94
2020/12/10 12:48:57;;;;;;;14.65;6.35;;;6.20;99.90;;;;;;4916543;29;20119;-94
2020/12/10 12:51:23;;;;;;;20.55;6.53;;;6.20;99.90;;;;;;4916087;29;20475;-94
2020/12/10 12:53:52;;;;;;;18.00;6.97;;;6.10;99.90;;;;;;4916219;29;20051;-94
2020/12/10 12:56:19;;;;;;;11.18;5.90;;;6.10;99.90;;;;;;4916912;29;20036;-93
2020/12/10 12:58:48;;;;;;;18.30;6.00;;;6.20;99.90;;;;;;4918108;29;20024;-95
2020/12/10 13:01:15;;;;;;;16.40;6.82;;;6.10;99.90;;;;;;4922045;29;20046;-95
2020/12/10 13:03:41;;;;;;;16.85;5.82;;;6.10;99.90;;;;;;4916751;29;20153;-95
2020/12/10 13:06:13;;;;;;;13.40;6.60;;;6.10;99.90;;;;;;4919816;29;20138;-96
2020/12/10 13:08:39;;;;;;;21.80;6.53;;;6.10;99.90;;;;;;4920254;29;20905;-94
2020/12/10 13:11:06;;;;;;;18.13;6.80;;;6.10;99.90;;;;;;4917593;29;20020;-96
2020/12/10 13:13:38;;;;;;;15.45;8.07;;;6.10;99.90;;;;;;4920867;29;20024;-94
2020/12/10 13:16:04;;;;;;;15.93;6.65;;;6.20;99.90;;;;;;4922967;29;20110;-95
2020/12/10 13:18:31;;;;;;;14.18;6.78;;;6.20;99.90;;;;;;4917270;29;20698;-95
2020/12/10 13:20:58;;;;;;;12.95;6.05;;;6.20;99.90;;;;;;4928770;29;20017;-95
2020/12/10 13:23:24;;;;;;;26.27;8.18;;;6.20;99.90;;;;;;4925780;29;20032;-95
2020/12/10 13:25:49;;;;;;;33.50;10.05;;;6.20;99.90;;;;;;4925406;29;20505;-94
2020/12/10 13:28:17;;;;;;;23.52;8.63;;;6.10;99.90;;;;;;4923852;29;20040;-94